sensor_id;sensor_type;location;lat;lon;timestamp;P1;durP1;ratioP1;P2;durP2;ratioP2
19163;SDS011;9714;51.208;4.242;2023-04-25T00:01:21;21.00;;;5.73;;
19163;SDS011;9714;51.208;4.242;2023-04-25T00:03:48;22.70;;;4.93;;
19163;SDS011;9714;51.208;4.242;2023-04-25T00:06:17;25.83;;;5.27;;
19163;SDS011;9714;51.208;4.242;2023-04-25T00:08:45;30.47;;;5.67;;
19163;SDS011;9714;51.208;4.242;2023-04-25T00:11:13;23.67;;;5.10;;
19163;SDS011;9714;51.208;4.242;2023-04-25T00:13:41;22.67;;;6.37;;
19163;SDS011;9714;51.208;4.242;2023-04-25T00:16:11;27.67;;;5.67;;
19163;SDS011;9714;51.208;4.242;2023-04-25T00:18:41;26.77;;;5.70;;
19163;SDS011;9714;51.208;4.242;2023-04-25T00:21:10;30.70;;;5.70;;
19163;SDS011;9714;51.208;4.242;2023-04-25T00:23:38;21.90;;;6.07;;
19163;SDS011;9714;51.208;4.242;2023-04-25T00:26:05;38.47;;;6.20;;
19163;SDS011;9714;51.208;4.242;2023-04-25T00:28:32;24.00;;;6.20;;
19163;SDS011;9714;51.208;4.242;2023-04-25T00:31:02;22.50;;;4.57;;
19163;SDS011;9714;51.208;4.242;2023-04-25T00:33:31;22.60;;;5.20;;
19163;SDS011;9714;51.208;4.242;2023-04-25T00:35:59;26.83;;;5.93;;
19163;SDS011;9714;51.208;4.242;2023-04-25T00:38:27;27.30;;;5.20;;
19163;SDS011;9714;51.208;4.242;2023-04-25T00:41:00;21.23;;;5.40;;
19163;SDS011;9714;51.208;4.242;2023-04-25T00:43:27;27.90;;;5.43;;
19163;SDS011;9714;51.208;4.242;2023-04-25T00:45:56;24.47;;;4.83;;
19163;SDS011;9714;51.208;4.242;2023-04-25T00:48:26;25.00;;;5.30;;
19163;SDS011;9714;51.208;4.242;2023-04-25T00:50:57;27.33;;;5.30;;
19163;SDS011;9714;51.208;4.242;2023-04-25T00:53:31;25.50;;;5.60;;
19163;SDS011;9714;51.208;4.242;2023-04-25T00:55:58;25.43;;;5.77;;
19163;SDS011;9714;51.208;4.242;2023-04-25T00:58:27;21.00;;;5.97;;
19163;SDS011;9714;51.208;4.242;2023-04-25T01:00:54;26.23;;;5.27;;
19163;SDS011;9714;51.208;4.242;2023-04-25T01:03:26;27.20;;;5.50;;
19163;SDS011;9714;51.208;4.242;2023-04-25T01:05:55;27.00;;;4.90;;
19163;SDS011;9714;51.208;4.242;2023-04-25T01:08:30;32.40;;;5.33;;
19163;SDS011;9714;51.208;4.242;2023-04-25T01:20:33;23.33;;;4.60;;
19163;SDS011;9714;51.208;4.242;2023-04-25T01:23:02;24.73;;;5.40;;
19163;SDS011;9714;51.208;4.242;2023-04-25T01:25:47;27.97;;;4.93;;
19163;SDS011;9714;51.208;4.242;2023-04-25T01:28:23;27.83;;;6.10;;
19163;SDS011;9714;51.208;4.242;2023-04-25T01:30:56;26.80;;;5.10;;
19163;SDS011;9714;51.208;4.242;2023-04-25T01:33:24;24.33;;;5.10;;
19163;SDS011;9714;51.208;4.242;2023-04-25T01:38:31;23.57;;;4.93;;
19163;SDS011;9714;51.208;4.242;2023-04-25T01:44:03;26.00;;;5.27;;
19163;SDS011;9714;51.208;4.242;2023-04-25T01:46:36;27.13;;;5.07;;
19163;SDS011;9714;51.208;4.242;2023-04-25T01:49:04;24.17;;;4.90;;
19163;SDS011;9714;51.208;4.242;2023-04-25T01:51:31;28.87;;;4.17;;
19163;SDS011;9714;51.208;4.242;2023-04-25T01:54:00;30.30;;;5.90;;
19163;SDS011;9714;51.208;4.242;2023-04-25T01:56:29;29.57;;;4.60;;
19163;SDS011;9714;51.208;4.242;2023-04-25T01:58:58;32.37;;;5.90;;
19163;SDS011;9714;51.208;4.242;2023-04-25T02:01:28;25.10;;;4.57;;
19163;SDS011;9714;51.208;4.242;2023-04-25T02:03:55;26.53;;;5.33;;
19163;SDS011;9714;51.208;4.242;2023-04-25T02:06:22;25.10;;;4.93;;
19163;SDS011;9714;51.208;4.242;2023-04-25T02:08:52;23.00;;;5.23;;
19163;SDS011;9714;51.208;4.242;2023-04-25T02:11:20;26.83;;;5.00;;
19163;SDS011;9714;51.208;4.242;2023-04-25T02:13:48;28.73;;;4.67;;
19163;SDS011;9714;51.208;4.242;2023-04-25T02:16:15;20.03;;;4.33;;
19163;SDS011;9714;51.208;4.242;2023-04-25T02:18:43;27.43;;;4.63;;
19163;SDS011;9714;51.208;4.242;2023-04-25T02:21:16;22.43;;;5.20;;
19163;SDS011;9714;51.208;4.242;2023-04-25T02:23:43;25.17;;;4.97;;
19163;SDS011;9714;51.208;4.242;2023-04-25T02:26:15;22.10;;;4.63;;
19163;SDS011;9714;51.208;4.242;2023-04-25T02:28:46;23.60;;;4.90;;
19163;SDS011;9714;51.208;4.242;2023-04-25T02:31:13;20.20;;;4.40;;
19163;SDS011;9714;51.208;4.242;2023-04-25T02:33:40;26.23;;;4.97;;
19163;SDS011;9714;51.208;4.242;2023-04-25T02:36:07;29.53;;;5.50;;
19163;SDS011;9714;51.208;4.242;2023-04-25T02:38:35;24.07;;;4.37;;
19163;SDS011;9714;51.208;4.242;2023-04-25T02:41:02;24.27;;;6.10;;
19163;SDS011;9714;51.208;4.242;2023-04-25T02:43:29;34.87;;;4.93;;
19163;SDS011;9714;51.208;4.242;2023-04-25T02:45:57;20.77;;;5.00;;
19163;SDS011;9714;51.208;4.242;2023-04-25T02:48:25;26.40;;;5.17;;
19163;SDS011;9714;51.208;4.242;2023-04-25T02:50:52;23.40;;;4.77;;
19163;SDS011;9714;51.208;4.242;2023-04-25T02:58:43;33.43;;;5.47;;
19163;SDS011;9714;51.208;4.242;2023-04-25T03:01:12;27.17;;;4.97;;
19163;SDS011;9714;51.208;4.242;2023-04-25T03:03:39;24.60;;;4.60;;
19163;SDS011;9714;51.208;4.242;2023-04-25T03:06:06;25.40;;;4.37;;
19163;SDS011;9714;51.208;4.242;2023-04-25T03:08:33;20.93;;;4.27;;
19163;SDS011;9714;51.208;4.242;2023-04-25T03:11:00;28.27;;;5.07;;
19163;SDS011;9714;51.208;4.242;2023-04-25T03:13:28;27.43;;;5.03;;
19163;SDS011;9714;51.208;4.242;2023-04-25T03:15:55;22.83;;;4.27;;
19163;SDS011;9714;51.208;4.242;2023-04-25T03:21:16;19.57;;;4.60;;
19163;SDS011;9714;51.208;4.242;2023-04-25T03:23:49;25.53;;;5.00;;
19163;SDS011;9714;51.208;4.242;2023-04-25T03:26:16;23.97;;;5.17;;
19163;SDS011;9714;51.208;4.242;2023-04-25T03:28:44;20.33;;;4.90;;
19163;SDS011;9714;51.208;4.242;2023-04-25T03:31:11;19.00;;;4.23;;
19163;SDS011;9714;51.208;4.242;2023-04-25T03:33:42;17.23;;;3.93;;
19163;SDS011;9714;51.208;4.242;2023-04-25T03:36:11;16.33;;;3.13;;
19163;SDS011;9714;51.208;4.242;2023-04-25T03:38:38;16.63;;;3.97;;
19163;SDS011;9714;51.208;4.242;2023-04-25T03:41:07;18.73;;;3.80;;
19163;SDS011;9714;51.208;4.242;2023-04-25T03:46:04;12.13;;;3.33;;
19163;SDS011;9714;51.208;4.242;2023-04-25T03:48:31;12.17;;;2.70;;
19163;SDS011;9714;51.208;4.242;2023-04-25T03:51:00;15.30;;;3.13;;
19163;SDS011;9714;51.208;4.242;2023-04-25T03:53:28;19.60;;;3.57;;
19163;SDS011;9714;51.208;4.242;2023-04-25T03:55:55;14.70;;;3.60;;
19163;SDS011;9714;51.208;4.242;2023-04-25T03:58:22;18.17;;;3.10;;
19163;SDS011;9714;51.208;4.242;2023-04-25T04:00:50;14.93;;;3.20;;
19163;SDS011;9714;51.208;4.242;2023-04-25T04:03:17;11.80;;;2.97;;
19163;SDS011;9714;51.208;4.242;2023-04-25T04:05:45;18.80;;;4.53;;
19163;SDS011;9714;51.208;4.242;2023-04-25T04:08:12;13.03;;;3.23;;
19163;SDS011;9714;51.208;4.242;2023-04-25T04:10:41;18.20;;;3.33;;
19163;SDS011;9714;51.208;4.242;2023-04-25T04:13:08;18.73;;;3.00;;
19163;SDS011;9714;51.208;4.242;2023-04-25T04:15:35;17.93;;;3.20;;
19163;SDS011;9714;51.208;4.242;2023-04-25T04:18:02;16.73;;;3.93;;
19163;SDS011;9714;51.208;4.242;2023-04-25T04:20:29;19.17;;;3.60;;
19163;SDS011;9714;51.208;4.242;2023-04-25T04:22:57;21.37;;;4.13;;
19163;SDS011;9714;51.208;4.242;2023-04-25T04:25:24;23.13;;;4.30;;
19163;SDS011;9714;51.208;4.242;2023-04-25T04:27:52;15.43;;;4.17;;
19163;SDS011;9714;51.208;4.242;2023-04-25T04:30:20;19.13;;;3.80;;
19163;SDS011;9714;51.208;4.242;2023-04-25T04:32:55;19.70;;;4.93;;
19163;SDS011;9714;51.208;4.242;2023-04-25T04:35:22;13.27;;;4.00;;
19163;SDS011;9714;51.208;4.242;2023-04-25T04:43:26;23.57;;;4.10;;
19163;SDS011;9714;51.208;4.242;2023-04-25T04:45:53;16.00;;;4.50;;
19163;SDS011;9714;51.208;4.242;2023-04-25T04:48:21;27.50;;;4.67;;
19163;SDS011;9714;51.208;4.242;2023-04-25T04:50:49;23.47;;;4.13;;
19163;SDS011;9714;51.208;4.242;2023-04-25T04:53:17;24.43;;;4.30;;
19163;SDS011;9714;51.208;4.242;2023-04-25T04:55:45;17.97;;;3.80;;
19163;SDS011;9714;51.208;4.242;2023-04-25T04:58:12;21.90;;;4.17;;
19163;SDS011;9714;51.208;4.242;2023-04-25T05:00:41;15.57;;;4.57;;
19163;SDS011;9714;51.208;4.242;2023-04-25T05:03:14;22.27;;;4.20;;
19163;SDS011;9714;51.208;4.242;2023-04-25T05:05:42;19.23;;;3.53;;
19163;SDS011;9714;51.208;4.242;2023-04-25T05:08:10;28.50;;;6.03;;
19163;SDS011;9714;51.208;4.242;2023-04-25T05:10:38;19.33;;;4.00;;
19163;SDS011;9714;51.208;4.242;2023-04-25T05:13:05;18.80;;;5.00;;
19163;SDS011;9714;51.208;4.242;2023-04-25T05:15:32;21.60;;;4.20;;
19163;SDS011;9714;51.208;4.242;2023-04-25T05:18:01;20.63;;;4.03;;
19163;SDS011;9714;51.208;4.242;2023-04-25T05:20:28;21.33;;;3.93;;
19163;SDS011;9714;51.208;4.242;2023-04-25T05:22:56;21.43;;;3.47;;
19163;SDS011;9714;51.208;4.242;2023-04-25T05:25:24;19.20;;;4.33;;
19163;SDS011;9714;51.208;4.242;2023-04-25T05:27:51;20.20;;;4.27;;
19163;SDS011;9714;51.208;4.242;2023-04-25T05:30:19;16.97;;;4.27;;
19163;SDS011;9714;51.208;4.242;2023-04-25T05:32:49;21.47;;;4.13;;
19163;SDS011;9714;51.208;4.242;2023-04-25T05:35:18;20.30;;;4.33;;
19163;SDS011;9714;51.208;4.242;2023-04-25T05:37:45;22.20;;;4.03;;
19163;SDS011;9714;51.208;4.242;2023-04-25T05:40:12;19.60;;;2.97;;
19163;SDS011;9714;51.208;4.242;2023-04-25T05:42:41;20.57;;;4.43;;
19163;SDS011;9714;51.208;4.242;2023-04-25T05:45:08;19.80;;;4.20;;
19163;SDS011;9714;51.208;4.242;2023-04-25T05:47:39;19.40;;;3.93;;
19163;SDS011;9714;51.208;4.242;2023-04-25T05:50:07;16.07;;;3.37;;
19163;SDS011;9714;51.208;4.242;2023-04-25T05:52:39;28.13;;;4.43;;
19163;SDS011;9714;51.208;4.242;2023-04-25T05:55:08;21.20;;;3.93;;
19163;SDS011;9714;51.208;4.242;2023-04-25T05:57:35;20.60;;;4.07;;
19163;SDS011;9714;51.208;4.242;2023-04-25T06:00:07;17.53;;;4.00;;
19163;SDS011;9714;51.208;4.242;2023-04-25T06:02:35;15.53;;;3.90;;
19163;SDS011;9714;51.208;4.242;2023-04-25T06:05:02;19.13;;;3.43;;
19163;SDS011;9714;51.208;4.242;2023-04-25T06:07:29;21.80;;;3.53;;
19163;SDS011;9714;51.208;4.242;2023-04-25T06:09:58;33.77;;;5.00;;
19163;SDS011;9714;51.208;4.242;2023-04-25T06:12:27;26.43;;;3.80;;
19163;SDS011;9714;51.208;4.242;2023-04-25T06:14:54;26.00;;;3.67;;
19163;SDS011;9714;51.208;4.242;2023-04-25T06:17:21;13.70;;;3.27;;
19163;SDS011;9714;51.208;4.242;2023-04-25T06:19:48;17.00;;;2.90;;
19163;SDS011;9714;51.208;4.242;2023-04-25T06:22:21;18.63;;;3.33;;
19163;SDS011;9714;51.208;4.242;2023-04-25T06:24:48;15.70;;;2.97;;
19163;SDS011;9714;51.208;4.242;2023-04-25T06:27:18;15.87;;;3.07;;
19163;SDS011;9714;51.208;4.242;2023-04-25T06:29:45;20.10;;;3.97;;
19163;SDS011;9714;51.208;4.242;2023-04-25T06:32:12;15.23;;;3.30;;
19163;SDS011;9714;51.208;4.242;2023-04-25T06:34:39;17.20;;;3.03;;
19163;SDS011;9714;51.208;4.242;2023-04-25T06:37:06;15.23;;;3.03;;
19163;SDS011;9714;51.208;4.242;2023-04-25T06:39:34;15.70;;;3.27;;
19163;SDS011;9714;51.208;4.242;2023-04-25T06:42:01;14.87;;;3.53;;
19163;SDS011;9714;51.208;4.242;2023-04-25T06:44:32;16.90;;;3.50;;
19163;SDS011;9714;51.208;4.242;2023-04-25T06:49:46;18.50;;;3.37;;
19163;SDS011;9714;51.208;4.242;2023-04-25T06:52:13;19.93;;;3.53;;
19163;SDS011;9714;51.208;4.242;2023-04-25T06:54:43;16.43;;;2.50;;
19163;SDS011;9714;51.208;4.242;2023-04-25T06:57:10;22.03;;;3.00;;
19163;SDS011;9714;51.208;4.242;2023-04-25T06:59:38;36.40;;;3.93;;
19163;SDS011;9714;51.208;4.242;2023-04-25T07:02:07;12.33;;;2.27;;
19163;SDS011;9714;51.208;4.242;2023-04-25T07:04:34;10.87;;;2.23;;
19163;SDS011;9714;51.208;4.242;2023-04-25T07:07:02;14.33;;;2.03;;
19163;SDS011;9714;51.208;4.242;2023-04-25T07:09:29;12.17;;;2.30;;
19163;SDS011;9714;51.208;4.242;2023-04-25T07:11:59;18.43;;;2.93;;
19163;SDS011;9714;51.208;4.242;2023-04-25T07:14:29;17.23;;;2.77;;
19163;SDS011;9714;51.208;4.242;2023-04-25T07:16:58;21.30;;;3.00;;
19163;SDS011;9714;51.208;4.242;2023-04-25T07:19:25;12.53;;;2.60;;
19163;SDS011;9714;51.208;4.242;2023-04-25T07:21:54;15.37;;;2.50;;
19163;SDS011;9714;51.208;4.242;2023-04-25T07:24:23;13.83;;;2.57;;
19163;SDS011;9714;51.208;4.242;2023-04-25T07:26:50;11.33;;;2.20;;
19163;SDS011;9714;51.208;4.242;2023-04-25T07:29:17;14.80;;;2.37;;
19163;SDS011;9714;51.208;4.242;2023-04-25T07:31:44;13.60;;;2.30;;
19163;SDS011;9714;51.208;4.242;2023-04-25T07:34:13;12.63;;;2.40;;
19163;SDS011;9714;51.208;4.242;2023-04-25T07:36:40;11.43;;;2.20;;
19163;SDS011;9714;51.208;4.242;2023-04-25T07:39:07;6.90;;;1.53;;
19163;SDS011;9714;51.208;4.242;2023-04-25T07:41:35;13.23;;;2.57;;
19163;SDS011;9714;51.208;4.242;2023-04-25T07:44:02;10.03;;;1.57;;
19163;SDS011;9714;51.208;4.242;2023-04-25T07:46:29;10.90;;;2.03;;
19163;SDS011;9714;51.208;4.242;2023-04-25T07:48:59;13.73;;;2.07;;
19163;SDS011;9714;51.208;4.242;2023-04-25T07:51:27;10.63;;;2.17;;
19163;SDS011;9714;51.208;4.242;2023-04-25T07:53:54;12.90;;;2.13;;
19163;SDS011;9714;51.208;4.242;2023-04-25T07:56:21;12.07;;;2.20;;
19163;SDS011;9714;51.208;4.242;2023-04-25T07:58:48;11.93;;;2.50;;
19163;SDS011;9714;51.208;4.242;2023-04-25T08:01:16;11.33;;;1.80;;
19163;SDS011;9714;51.208;4.242;2023-04-25T08:03:44;10.40;;;2.20;;
19163;SDS011;9714;51.208;4.242;2023-04-25T08:06:11;6.43;;;1.40;;
19163;SDS011;9714;51.208;4.242;2023-04-25T08:08:39;8.87;;;1.80;;
19163;SDS011;9714;51.208;4.242;2023-04-25T08:11:06;11.63;;;1.40;;
19163;SDS011;9714;51.208;4.242;2023-04-25T08:13:33;16.60;;;1.77;;
19163;SDS011;9714;51.208;4.242;2023-04-25T08:16:03;16.63;;;2.13;;
19163;SDS011;9714;51.208;4.242;2023-04-25T08:18:30;11.50;;;2.03;;
19163;SDS011;9714;51.208;4.242;2023-04-25T08:20:57;13.03;;;2.37;;
19163;SDS011;9714;51.208;4.242;2023-04-25T08:23:24;8.67;;;1.83;;
19163;SDS011;9714;51.208;4.242;2023-04-25T08:25:53;11.67;;;1.53;;
19163;SDS011;9714;51.208;4.242;2023-04-25T08:28:20;7.07;;;1.43;;
19163;SDS011;9714;51.208;4.242;2023-04-25T08:30:47;14.43;;;2.03;;
19163;SDS011;9714;51.208;4.242;2023-04-25T08:33:14;9.53;;;1.73;;
19163;SDS011;9714;51.208;4.242;2023-04-25T08:35:41;9.17;;;1.90;;
19163;SDS011;9714;51.208;4.242;2023-04-25T08:38:09;12.63;;;1.80;;
19163;SDS011;9714;51.208;4.242;2023-04-25T08:40:37;8.10;;;1.70;;
19163;SDS011;9714;51.208;4.242;2023-04-25T08:43:07;8.33;;;1.63;;
19163;SDS011;9714;51.208;4.242;2023-04-25T08:45:38;8.83;;;1.37;;
19163;SDS011;9714;51.208;4.242;2023-04-25T08:48:07;10.43;;;1.60;;
19163;SDS011;9714;51.208;4.242;2023-04-25T08:50:38;12.37;;;1.50;;
19163;SDS011;9714;51.208;4.242;2023-04-25T08:53:08;9.13;;;1.63;;
19163;SDS011;9714;51.208;4.242;2023-04-25T08:55:38;10.70;;;1.40;;
19163;SDS011;9714;51.208;4.242;2023-04-25T08:58:11;10.37;;;1.90;;
19163;SDS011;9714;51.208;4.242;2023-04-25T09:00:39;7.60;;;1.30;;
19163;SDS011;9714;51.208;4.242;2023-04-25T09:03:06;12.40;;;2.20;;
19163;SDS011;9714;51.208;4.242;2023-04-25T09:05:34;9.47;;;1.60;;
19163;SDS011;9714;51.208;4.242;2023-04-25T09:08:01;9.20;;;1.57;;
19163;SDS011;9714;51.208;4.242;2023-04-25T09:10:29;8.33;;;1.70;;
19163;SDS011;9714;51.208;4.242;2023-04-25T09:13:02;8.40;;;1.30;;
19163;SDS011;9714;51.208;4.242;2023-04-25T09:15:32;10.67;;;1.80;;
19163;SDS011;9714;51.208;4.242;2023-04-25T09:18:00;13.40;;;2.10;;
19163;SDS011;9714;51.208;4.242;2023-04-25T09:20:28;10.80;;;1.50;;
19163;SDS011;9714;51.208;4.242;2023-04-25T09:23:01;9.37;;;1.67;;
19163;SDS011;9714;51.208;4.242;2023-04-25T09:25:33;13.33;;;2.43;;
19163;SDS011;9714;51.208;4.242;2023-04-25T09:28:05;9.93;;;1.67;;
19163;SDS011;9714;51.208;4.242;2023-04-25T09:30:34;11.30;;;1.63;;
19163;SDS011;9714;51.208;4.242;2023-04-25T09:33:05;11.60;;;1.93;;
19163;SDS011;9714;51.208;4.242;2023-04-25T09:35:36;10.33;;;1.87;;
19163;SDS011;9714;51.208;4.242;2023-04-25T09:38:08;10.93;;;1.70;;
19163;SDS011;9714;51.208;4.242;2023-04-25T09:40:39;13.77;;;4.17;;
19163;SDS011;9714;51.208;4.242;2023-04-25T09:43:10;10.93;;;1.50;;
19163;SDS011;9714;51.208;4.242;2023-04-25T09:45:45;7.53;;;1.57;;
19163;SDS011;9714;51.208;4.242;2023-04-25T09:48:16;12.63;;;2.07;;
19163;SDS011;9714;51.208;4.242;2023-04-25T09:50:45;20.60;;;3.27;;
19163;SDS011;9714;51.208;4.242;2023-04-25T09:53:15;12.80;;;1.93;;
19163;SDS011;9714;51.208;4.242;2023-04-25T09:55:43;13.73;;;1.77;;
19163;SDS011;9714;51.208;4.242;2023-04-25T09:58:12;12.23;;;1.53;;
19163;SDS011;9714;51.208;4.242;2023-04-25T10:00:41;10.37;;;2.30;;
19163;SDS011;9714;51.208;4.242;2023-04-25T10:03:10;9.47;;;1.33;;
19163;SDS011;9714;51.208;4.242;2023-04-25T10:05:38;16.47;;;1.93;;
19163;SDS011;9714;51.208;4.242;2023-04-25T10:08:07;12.80;;;1.83;;
19163;SDS011;9714;51.208;4.242;2023-04-25T10:10:35;11.00;;;2.07;;
19163;SDS011;9714;51.208;4.242;2023-04-25T10:13:06;14.47;;;2.20;;
19163;SDS011;9714;51.208;4.242;2023-04-25T10:15:39;8.20;;;1.70;;
19163;SDS011;9714;51.208;4.242;2023-04-25T10:18:15;9.73;;;1.70;;
19163;SDS011;9714;51.208;4.242;2023-04-25T10:20:44;6.93;;;1.40;;
19163;SDS011;9714;51.208;4.242;2023-04-25T10:23:12;11.83;;;1.70;;
19163;SDS011;9714;51.208;4.242;2023-04-25T10:25:41;6.03;;;1.20;;
19163;SDS011;9714;51.208;4.242;2023-04-25T10:28:11;9.67;;;2.10;;
19163;SDS011;9714;51.208;4.242;2023-04-25T10:30:39;12.73;;;1.47;;
19163;SDS011;9714;51.208;4.242;2023-04-25T10:33:36;8.10;;;1.77;;
19163;SDS011;9714;51.208;4.242;2023-04-25T10:36:13;5.93;;;1.30;;
19163;SDS011;9714;51.208;4.242;2023-04-25T10:38:49;7.67;;;1.10;;
19163;SDS011;9714;51.208;4.242;2023-04-25T10:41:23;6.17;;;1.30;;
19163;SDS011;9714;51.208;4.242;2023-04-25T10:46:26;7.03;;;1.13;;
19163;SDS011;9714;51.208;4.242;2023-04-25T10:48:58;7.33;;;1.20;;
19163;SDS011;9714;51.208;4.242;2023-04-25T10:51:29;5.40;;;0.80;;
19163;SDS011;9714;51.208;4.242;2023-04-25T10:53:59;4.63;;;1.00;;
19163;SDS011;9714;51.208;4.242;2023-04-25T10:56:28;4.07;;;1.03;;
19163;SDS011;9714;51.208;4.242;2023-04-25T10:59:04;4.80;;;0.60;;
19163;SDS011;9714;51.208;4.242;2023-04-25T11:01:38;6.83;;;1.23;;
19163;SDS011;9714;51.208;4.242;2023-04-25T11:04:07;4.60;;;0.90;;
19163;SDS011;9714;51.208;4.242;2023-04-25T11:09:32;6.28;;;1.30;;
19163;SDS011;9714;51.208;4.242;2023-04-25T11:12:00;6.17;;;0.90;;
19163;SDS011;9714;51.208;4.242;2023-04-25T11:14:29;9.73;;;1.23;;
19163;SDS011;9714;51.208;4.242;2023-04-25T11:16:56;7.40;;;1.00;;
19163;SDS011;9714;51.208;4.242;2023-04-25T11:19:28;10.50;;;1.48;;
19163;SDS011;9714;51.208;4.242;2023-04-25T11:21:55;7.38;;;1.20;;
19163;SDS011;9714;51.208;4.242;2023-04-25T11:24:25;14.50;;;1.43;;
19163;SDS011;9714;51.208;4.242;2023-04-25T11:26:54;9.20;;;1.77;;
19163;SDS011;9714;51.208;4.242;2023-04-25T11:29:22;5.93;;;1.10;;
19163;SDS011;9714;51.208;4.242;2023-04-25T11:31:50;4.70;;;0.97;;
19163;SDS011;9714;51.208;4.242;2023-04-25T11:34:18;7.23;;;1.57;;
19163;SDS011;9714;51.208;4.242;2023-04-25T11:36:48;8.20;;;1.50;;
19163;SDS011;9714;51.208;4.242;2023-04-25T11:39:17;11.13;;;2.37;;
19163;SDS011;9714;51.208;4.242;2023-04-25T11:41:45;10.47;;;2.00;;
19163;SDS011;9714;51.208;4.242;2023-04-25T11:44:15;12.03;;;1.77;;
19163;SDS011;9714;51.208;4.242;2023-04-25T11:46:43;10.40;;;1.80;;
19163;SDS011;9714;51.208;4.242;2023-04-25T11:49:12;12.40;;;1.73;;
19163;SDS011;9714;51.208;4.242;2023-04-25T11:51:39;12.87;;;1.63;;
19163;SDS011;9714;51.208;4.242;2023-04-25T11:54:09;9.27;;;1.60;;
19163;SDS011;9714;51.208;4.242;2023-04-25T11:56:40;9.83;;;1.43;;
19163;SDS011;9714;51.208;4.242;2023-04-25T11:59:08;10.37;;;1.80;;
19163;SDS011;9714;51.208;4.242;2023-04-25T12:01:48;6.83;;;1.43;;
19163;SDS011;9714;51.208;4.242;2023-04-25T12:04:16;6.97;;;1.53;;
19163;SDS011;9714;51.208;4.242;2023-04-25T12:06:45;10.20;;;1.30;;
19163;SDS011;9714;51.208;4.242;2023-04-25T12:09:17;6.50;;;1.07;;
19163;SDS011;9714;51.208;4.242;2023-04-25T12:11:46;7.50;;;1.40;;
19163;SDS011;9714;51.208;4.242;2023-04-25T12:14:21;12.07;;;1.70;;
19163;SDS011;9714;51.208;4.242;2023-04-25T12:16:50;15.20;;;1.50;;
19163;SDS011;9714;51.208;4.242;2023-04-25T12:19:18;4.47;;;0.93;;
19163;SDS011;9714;51.208;4.242;2023-04-25T12:21:58;11.43;;;1.70;;
19163;SDS011;9714;51.208;4.242;2023-04-25T12:24:35;7.93;;;1.80;;
19163;SDS011;9714;51.208;4.242;2023-04-25T12:27:04;11.30;;;1.63;;
19163;SDS011;9714;51.208;4.242;2023-04-25T12:29:36;12.20;;;2.13;;
19163;SDS011;9714;51.208;4.242;2023-04-25T12:32:09;8.73;;;1.53;;
19163;SDS011;9714;51.208;4.242;2023-04-25T12:34:36;11.43;;;1.27;;
19163;SDS011;9714;51.208;4.242;2023-04-25T12:37:09;10.70;;;2.33;;
19163;SDS011;9714;51.208;4.242;2023-04-25T12:39:39;8.77;;;1.37;;
19163;SDS011;9714;51.208;4.242;2023-04-25T12:42:07;4.57;;;0.90;;
19163;SDS011;9714;51.208;4.242;2023-04-25T12:44:42;11.07;;;1.47;;
19163;SDS011;9714;51.208;4.242;2023-04-25T12:47:09;10.77;;;1.40;;
19163;SDS011;9714;51.208;4.242;2023-04-25T12:52:09;6.57;;;1.20;;
19163;SDS011;9714;51.208;4.242;2023-04-25T12:54:36;6.00;;;1.33;;
19163;SDS011;9714;51.208;4.242;2023-04-25T12:57:07;7.37;;;1.20;;
19163;SDS011;9714;51.208;4.242;2023-04-25T12:59:37;11.63;;;1.50;;
19163;SDS011;9714;51.208;4.242;2023-04-25T13:02:05;9.40;;;2.20;;
19163;SDS011;9714;51.208;4.242;2023-04-25T13:04:33;10.10;;;1.50;;
19163;SDS011;9714;51.208;4.242;2023-04-25T13:07:03;11.83;;;1.50;;
19163;SDS011;9714;51.208;4.242;2023-04-25T13:09:31;11.40;;;1.87;;
19163;SDS011;9714;51.208;4.242;2023-04-25T13:22:03;9.50;;;1.70;;
19163;SDS011;9714;51.208;4.242;2023-04-25T13:30:14;5.47;;;1.00;;
19163;SDS011;9714;51.208;4.242;2023-04-25T13:32:42;5.87;;;1.43;;
19163;SDS011;9714;51.208;4.242;2023-04-25T13:35:20;8.30;;;1.23;;
19163;SDS011;9714;51.208;4.242;2023-04-25T13:38:07;9.83;;;1.20;;
19163;SDS011;9714;51.208;4.242;2023-04-25T13:40:49;7.37;;;1.23;;
19163;SDS011;9714;51.208;4.242;2023-04-25T13:46:05;16.83;;;1.47;;
19163;SDS011;9714;51.208;4.242;2023-04-25T13:48:38;13.67;;;1.80;;
19163;SDS011;9714;51.208;4.242;2023-04-25T13:51:12;7.37;;;1.40;;
19163;SDS011;9714;51.208;4.242;2023-04-25T13:53:41;7.50;;;1.13;;
19163;SDS011;9714;51.208;4.242;2023-04-25T13:56:09;6.07;;;0.97;;
19163;SDS011;9714;51.208;4.242;2023-04-25T13:58:37;8.53;;;1.20;;
19163;SDS011;9714;51.208;4.242;2023-04-25T14:01:05;7.90;;;1.30;;
19163;SDS011;9714;51.208;4.242;2023-04-25T14:03:32;6.77;;;1.27;;
19163;SDS011;9714;51.208;4.242;2023-04-25T14:06:01;7.57;;;1.33;;
19163;SDS011;9714;51.208;4.242;2023-04-25T14:08:29;12.37;;;1.63;;
19163;SDS011;9714;51.208;4.242;2023-04-25T14:11:04;13.00;;;1.60;;
19163;SDS011;9714;51.208;4.242;2023-04-25T14:13:32;10.23;;;1.50;;
19163;SDS011;9714;51.208;4.242;2023-04-25T14:16:00;6.27;;;1.10;;
19163;SDS011;9714;51.208;4.242;2023-04-25T14:20:58;6.77;;;1.23;;
19163;SDS011;9714;51.208;4.242;2023-04-25T14:23:26;5.23;;;1.00;;
19163;SDS011;9714;51.208;4.242;2023-04-25T14:25:53;6.83;;;1.17;;
19163;SDS011;9714;51.208;4.242;2023-04-25T14:28:22;20.00;;;1.67;;
19163;SDS011;9714;51.208;4.242;2023-04-25T14:30:52;11.37;;;1.50;;
19163;SDS011;9714;51.208;4.242;2023-04-25T14:35:50;6.27;;;1.13;;
19163;SDS011;9714;51.208;4.242;2023-04-25T14:38:19;6.60;;;1.10;;
19163;SDS011;9714;51.208;4.242;2023-04-25T14:40:48;9.97;;;1.90;;
19163;SDS011;9714;51.208;4.242;2023-04-25T14:43:15;8.13;;;1.23;;
19163;SDS011;9714;51.208;4.242;2023-04-25T14:45:46;13.20;;;1.97;;
19163;SDS011;9714;51.208;4.242;2023-04-25T14:48:19;11.60;;;1.63;;
19163;SDS011;9714;51.208;4.242;2023-04-25T14:50:47;5.60;;;1.23;;
19163;SDS011;9714;51.208;4.242;2023-04-25T14:53:14;7.63;;;1.23;;
19163;SDS011;9714;51.208;4.242;2023-04-25T14:55:42;8.80;;;1.30;;
19163;SDS011;9714;51.208;4.242;2023-04-25T14:58:10;7.50;;;1.63;;
19163;SDS011;9714;51.208;4.242;2023-04-25T15:00:39;12.10;;;1.47;;
19163;SDS011;9714;51.208;4.242;2023-04-25T15:03:12;11.17;;;1.23;;
19163;SDS011;9714;51.208;4.242;2023-04-25T15:05:42;10.03;;;1.40;;
19163;SDS011;9714;51.208;4.242;2023-04-25T15:08:09;7.00;;;1.10;;
19163;SDS011;9714;51.208;4.242;2023-04-25T15:13:22;7.00;;;1.13;;
19163;SDS011;9714;51.208;4.242;2023-04-25T15:15:53;8.80;;;1.70;;
19163;SDS011;9714;51.208;4.242;2023-04-25T15:20:57;11.53;;;1.90;;
19163;SDS011;9714;51.208;4.242;2023-04-25T15:23:26;13.03;;;2.17;;
19163;SDS011;9714;51.208;4.242;2023-04-25T15:25:53;116.40;;;9.77;;
19163;SDS011;9714;51.208;4.242;2023-04-25T15:28:21;8.10;;;1.53;;
19163;SDS011;9714;51.208;4.242;2023-04-25T15:30:49;10.17;;;1.90;;
19163;SDS011;9714;51.208;4.242;2023-04-25T15:33:27;6.43;;;1.23;;
19163;SDS011;9714;51.208;4.242;2023-04-25T15:35:54;10.80;;;1.63;;
19163;SDS011;9714;51.208;4.242;2023-04-25T15:38:35;7.03;;;1.40;;
19163;SDS011;9714;51.208;4.242;2023-04-25T15:41:09;9.23;;;1.43;;
19163;SDS011;9714;51.208;4.242;2023-04-25T15:43:42;8.43;;;1.43;;
19163;SDS011;9714;51.208;4.242;2023-04-25T15:46:16;11.60;;;2.20;;
19163;SDS011;9714;51.208;4.242;2023-04-25T15:48:51;10.63;;;1.27;;
19163;SDS011;9714;51.208;4.242;2023-04-25T15:51:18;9.53;;;1.53;;
19163;SDS011;9714;51.208;4.242;2023-04-25T15:53:49;10.03;;;1.83;;
19163;SDS011;9714;51.208;4.242;2023-04-25T15:56:17;5.17;;;1.17;;
19163;SDS011;9714;51.208;4.242;2023-04-25T15:58:51;9.70;;;1.60;;
19163;SDS011;9714;51.208;4.242;2023-04-25T16:04:20;9.17;;;1.57;;
19163;SDS011;9714;51.208;4.242;2023-04-25T16:06:50;14.47;;;2.00;;
19163;SDS011;9714;51.208;4.242;2023-04-25T16:12:31;6.97;;;1.10;;
19163;SDS011;9714;51.208;4.242;2023-04-25T16:15:02;6.63;;;1.33;;
19163;SDS011;9714;51.208;4.242;2023-04-25T16:17:32;7.70;;;1.70;;
19163;SDS011;9714;51.208;4.242;2023-04-25T16:20:01;10.13;;;1.80;;